Time;durP1;ratioP1;P1;durP2;ratioP2;P2;SDS_P1;SDS_P2;PMS_P1;PMS_P2;Temp;Humidity;BMP_temperature;BMP_pressure;BME280_temperature;BME280_humidity;BME280_pressure;Samples;Min_cycle;Max_cycle;Signal;HPM_P1;HPM_P2
2022/10/30 00:00:22;;;;;;;28.08;12.07;;;14.60;99.90;;;;;;4994643;28;20443;-73
2022/10/30 00:02:48;;;;;;;27.80;13.35;;;14.40;99.90;;;;;;4994255;28;20062;-73
2022/10/30 00:05:14;;;;;;;20.08;11.25;;;14.50;99.90;;;;;;4992946;28;20097;-73
2022/10/30 00:07:40;;;;;;;26.08;11.57;;;14.50;99.90;;;;;;4994235;28;20092;-74
2022/10/30 00:10:06;;;;;;;23.52;12.00;;;14.20;99.90;;;;;;4992779;28;20051;-73
2022/10/30 00:12:31;;;;;;;22.35;12.23;;;14.30;99.90;;;;;;4994151;28;20121;-73
2022/10/30 00:14:57;;;;;;;18.75;11.75;;;14.10;99.90;;;;;;4992815;28;20080;-73
2022/10/30 00:17:22;;;;;;;22.48;11.48;;;14.30;99.90;;;;;;4993009;28;20034;-74
2022/10/30 00:19:48;;;;;;;22.42;12.00;;;14.30;99.90;;;;;;4993872;28;20559;-73
2022/10/30 00:22:13;;;;;;;18.30;11.43;;;14.20;99.90;;;;;;4992681;28;20185;-74
2022/10/30 00:24:39;;;;;;;23.15;11.85;;;14.20;99.90;;;;;;4992430;28;20520;-73
2022/10/30 00:27:04;;;;;;;18.45;11.77;;;14.20;99.90;;;;;;4993884;28;20042;-73
2022/10/30 00:29:30;;;;;;;20.00;11.85;;;14.00;99.90;;;;;;4993360;28;20038;-73
2022/10/30 00:31:56;;;;;;;24.58;12.43;;;14.00;99.90;;;;;;4993824;28;20093;-73
2022/10/30 00:34:21;;;;;;;22.80;11.85;;;14.00;99.90;;;;;;4992370;28;20046;-73
2022/10/30 00:36:47;;;;;;;21.58;11.77;;;14.20;99.90;;;;;;4993695;28;20042;-73
2022/10/30 00:39:12;;;;;;;17.95;11.73;;;14.00;99.90;;;;;;4993539;28;20404;-73
2022/10/30 00:41:40;;;;;;;17.65;11.52;;;14.10;99.90;;;;;;4992318;28;20073;-73
2022/10/30 00:44:37;;;;;;;23.52;11.55;;;13.90;99.90;;;;;;4993319;28;20045;-73
2022/10/30 00:47:25;;;;;;;20.55;11.68;;;14.10;99.90;;;;;;4993433;28;20042;-73
2022/10/30 00:50:09;;;;;;;20.73;11.18;;;14.00;99.90;;;;;;4992328;28;20145;-73
2022/10/30 00:52:39;;;;;;;22.98;12.45;;;13.90;99.90;;;;;;4991789;28;20117;-73
2022/10/30 00:55:10;;;;;;;26.85;13.10;;;14.20;99.90;;;;;;4992120;28;20064;-73
2022/10/30 00:57:38;;;;;;;23.13;11.65;;;14.10;99.90;;;;;;4992477;28;20494;-73
2022/10/30 01:00:05;;;;;;;20.48;12.23;;;14.10;99.90;;;;;;4993824;28;20122;-73
2022/10/30 01:02:31;;;;;;;23.90;12.32;;;14.10;99.90;;;;;;4993023;28;20100;-73
2022/10/30 01:04:56;;;;;;;18.70;11.95;;;14.00;99.90;;;;;;4992487;28;20061;-73
2022/10/30 01:07:22;;;;;;;21.75;12.45;;;14.00;99.90;;;;;;4992201;28;20176;-74
2022/10/30 01:09:48;;;;;;;17.67;12.85;;;14.10;99.90;;;;;;4992125;28;20403;-74
2022/10/30 01:12:14;;;;;;;23.27;12.95;;;14.00;99.90;;;;;;4992925;28;20038;-73
2022/10/30 01:14:46;;;;;;;19.98;11.75;;;13.90;99.90;;;;;;4992732;28;20121;-74
2022/10/30 01:17:36;;;;;;;21.40;12.85;;;14.00;99.90;;;;;;4991997;28;20038;-74
2022/10/30 01:20:17;;;;;;;23.23;12.52;;;14.00;99.90;;;;;;4991675;28;20069;-74
2022/10/30 01:23:02;;;;;;;17.85;10.77;;;13.80;99.90;;;;;;4992436;28;20053;-74
2022/10/30 01:25:41;;;;;;;21.15;12.45;;;14.10;99.90;;;;;;4991545;28;20050;-74
2022/10/30 01:28:26;;;;;;;17.92;11.60;;;14.00;99.90;;;;;;4991584;28;20591;-74
2022/10/30 01:31:12;;;;;;;20.65;11.63;;;14.00;99.90;;;;;;4991441;28;20034;-73
2022/10/30 01:34:12;;;;;;;21.77;11.90;;;13.70;99.90;;;;;;4992471;28;20165;-73
2022/10/30 01:37:05;;;;;;;25.92;11.98;;;13.80;99.90;;;;;;4970128;28;20077;-73
2022/10/30 01:39:35;;;;;;;24.55;13.52;;;13.90;99.90;;;;;;4991486;28;20030;-73
2022/10/30 01:42:30;;;;;;;24.73;13.05;;;13.90;99.90;;;;;;4990564;28;20546;-73
2022/10/30 01:44:56;;;;;;;21.30;11.95;;;13.90;99.90;;;;;;4992422;28;20042;-73
2022/10/30 01:47:31;;;;;;;22.90;11.98;;;13.80;99.90;;;;;;4991120;28;20113;-73
2022/10/30 01:50:10;;;;;;;25.27;12.23;;;13.90;99.90;;;;;;4991123;28;20046;-73
2022/10/30 01:53:03;;;;;;;27.80;11.85;;;14.00;99.90;;;;;;4992073;28;20122;-73
2022/10/30 01:55:56;;;;;;;19.88;11.90;;;13.90;99.90;;;;;;4991394;28;20042;-73
2022/10/30 01:58:30;;;;;;;24.83;11.88;;;13.70;99.90;;;;;;4991154;28;20085;-73
2022/10/30 02:00:57;;;;;;;22.60;12.80;;;13.90;99.90;;;;;;4991060;28;20034;-73
2022/10/30 02:03:24;;;;;;;20.75;12.30;;;13.70;99.90;;;;;;4990658;28;20085;-73
2022/10/30 02:05:52;;;;;;;20.73;11.77;;;13.90;99.90;;;;;;4992384;28;20042;-73
2022/10/30 02:08:18;;;;;;;19.35;11.25;;;13.90;99.90;;;;;;4991114;28;20057;-73
2022/10/30 02:10:46;;;;;;;22.77;11.88;;;13.80;99.90;;;;;;4991077;28;20046;-73
2022/10/30 02:13:12;;;;;;;21.52;12.25;;;13.60;99.90;;;;;;4991912;28;20431;-73
2022/10/30 02:15:38;;;;;;;18.17;11.32;;;13.70;99.90;;;;;;4992325;28;20246;-73
2022/10/30 02:18:04;;;;;;;20.40;10.95;;;13.60;99.90;;;;;;4992205;28;20034;-73
2022/10/30 02:20:29;;;;;;;22.10;11.85;;;13.60;99.90;;;;;;4990938;28;20042;-73
2022/10/30 02:22:55;;;;;;;23.73;11.60;;;13.70;99.90;;;;;;4991690;28;20042;-74
2022/10/30 02:25:21;;;;;;;20.55;11.35;;;13.80;99.90;;;;;;4990755;28;20038;-73
2022/10/30 02:27:46;;;;;;;22.35;12.95;;;13.70;99.90;;;;;;4991025;28;20132;-74
2022/10/30 02:30:12;;;;;;;17.58;11.35;;;13.60;99.90;;;;;;4990766;28;20046;-73
2022/10/30 02:32:38;;;;;;;17.55;11.45;;;13.70;99.90;;;;;;4990299;28;20089;-73
2022/10/30 02:35:04;;;;;;;21.25;11.02;;;13.80;99.90;;;;;;4992094;28;20034;-73
2022/10/30 02:37:31;;;;;;;22.13;11.57;;;13.80;99.90;;;;;;4992200;28;20448;-73
2022/10/30 02:39:57;;;;;;;19.63;11.43;;;13.80;99.90;;;;;;4991926;28;20046;-73
2022/10/30 02:42:23;;;;;;;19.55;11.43;;;13.70;99.90;;;;;;4990318;28;20089;-74
2022/10/30 02:44:48;;;;;;;27.73;12.45;;;13.80;99.90;;;;;;4990664;28;20053;-73
2022/10/30 02:47:14;;;;;;;22.20;12.70;;;13.60;99.90;;;;;;4990849;28;20077;-73
2022/10/30 02:49:40;;;;;;;18.67;11.52;;;13.80;99.90;;;;;;4991810;28;20074;-73
2022/10/30 02:52:07;;;;;;;25.40;11.50;;;13.60;99.90;;;;;;4991158;28;20050;-74
2022/10/30 02:54:33;;;;;;;22.15;11.45;;;13.80;99.90;;;;;;4995245;28;20038;-73
2022/10/30 02:56:58;;;;;;;20.42;11.43;;;13.50;99.90;;;;;;4994269;28;20045;-73
2022/10/30 02:59:23;;;;;;;25.42;12.70;;;13.50;99.90;;;;;;4994622;28;20042;-73
2022/10/30 03:01:49;;;;;;;25.65;13.07;;;13.50;99.90;;;;;;4995565;28;20045;-73
2022/10/30 03:04:15;;;;;;;16.27;10.48;;;13.60;99.90;;;;;;4994030;28;20408;-73
2022/10/30 03:06:40;;;;;;;20.10;10.73;;;13.60;99.90;;;;;;4995388;28;20496;-73
2022/10/30 03:09:06;;;;;;;24.95;11.93;;;13.70;99.90;;;;;;4995278;28;20161;-73
2022/10/30 03:11:33;;;;;;;19.83;11.70;;;13.50;99.90;;;;;;4994156;28;20042;-74
2022/10/30 03:13:59;;;;;;;18.13;11.63;;;13.50;99.90;;;;;;4995173;28;20046;-73
2022/10/30 03:16:28;;;;;;;19.23;11.75;;;13.70;99.90;;;;;;4995162;28;20076;-73
2022/10/30 03:18:54;;;;;;;20.48;12.98;;;13.40;99.90;;;;;;4994135;28;20050;-73
2022/10/30 03:21:22;;;;;;;21.45;11.52;;;13.40;99.90;;;;;;4993825;28;20447;-73
2022/10/30 03:23:51;;;;;;;21.75;12.02;;;13.30;99.90;;;;;;4994465;28;20085;-73
2022/10/30 03:26:18;;;;;;;16.42;10.82;;;13.40;99.90;;;;;;4994025;28;20255;-73
2022/10/30 03:28:43;;;;;;;18.95;10.57;;;13.30;99.90;;;;;;4993748;28;20522;-73
2022/10/30 03:31:12;;;;;;;25.92;10.82;;;13.30;99.90;;;;;;4993526;28;20118;-73
2022/10/30 03:33:38;;;;;;;17.77;11.10;;;13.30;99.90;;;;;;4993220;28;20039;-74
2022/10/30 03:36:05;;;;;;;18.73;11.15;;;13.30;99.90;;;;;;4993812;28;20125;-73
2022/10/30 03:38:31;;;;;;;20.90;10.77;;;13.30;99.90;;;;;;4994669;28;20097;-73
2022/10/30 03:40:57;;;;;;;19.33;11.27;;;13.40;99.90;;;;;;4994934;28;20449;-73
2022/10/30 03:43:22;;;;;;;21.27;10.73;;;13.30;99.90;;;;;;4993298;28;20085;-73
2022/10/30 03:45:49;;;;;;;21.23;11.65;;;13.40;99.90;;;;;;4994691;28;20046;-73
2022/10/30 03:48:17;;;;;;;22.42;11.73;;;13.20;99.90;;;;;;4993312;28;20408;-73
2022/10/30 03:50:42;;;;;;;25.63;12.95;;;13.30;99.90;;;;;;4993194;28;20118;-73
2022/10/30 03:53:08;;;;;;;18.65;11.00;;;13.40;99.90;;;;;;4992917;28;20126;-73
2022/10/30 03:55:33;;;;;;;21.23;11.20;;;13.30;99.90;;;;;;4994511;28;20053;-73
2022/10/30 03:57:59;;;;;;;22.73;11.32;;;13.40;99.90;;;;;;4994557;28;20038;-73
2022/10/30 04:00:24;;;;;;;18.73;11.35;;;13.30;99.90;;;;;;4993170;28;20051;-73
2022/10/30 04:02:51;;;;;;;22.65;11.85;;;13.40;99.90;;;;;;4992776;28;20518;-73
2022/10/30 04:05:19;;;;;;;24.98;12.00;;;13.40;99.90;;;;;;4992176;28;20077;-73
2022/10/30 04:07:45;;;;;;;21.30;11.63;;;13.40;99.90;;;;;;4993022;28;20042;-73
2022/10/30 04:10:13;;;;;;;24.70;12.50;;;13.30;99.90;;;;;;4994310;28;20042;-73
2022/10/30 04:12:39;;;;;;;17.95;11.55;;;13.30;99.90;;;;;;4992795;28;20042;-73
2022/10/30 04:15:07;;;;;;;20.30;12.77;;;13.10;99.90;;;;;;4993090;28;20519;-73
2022/10/30 04:17:33;;;;;;;20.90;11.95;;;13.20;99.90;;;;;;4992979;28;20046;-73
2022/10/30 04:19:58;;;;;;;23.30;12.00;;;13.20;99.90;;;;;;4994066;28;20042;-73
2022/10/30 04:22:25;;;;;;;24.50;11.43;;;13.10;99.90;;;;;;4993783;28;20577;-73
2022/10/30 04:24:50;;;;;;;24.27;12.32;;;13.30;99.90;;;;;;4994168;28;20117;-73
2022/10/30 04:27:16;;;;;;;20.48;11.57;;;13.30;99.90;;;;;;4992696;28;20121;-73
2022/10/30 04:29:41;;;;;;;16.40;10.68;;;13.20;99.90;;;;;;4992805;28;20044;-74
2022/10/30 04:32:09;;;;;;;18.30;11.48;;;13.00;99.90;;;;;;4993654;28;20042;-73
2022/10/30 04:34:35;;;;;;;20.23;11.60;;;13.20;99.90;;;;;;4993417;28;20048;-73
2022/10/30 04:37:01;;;;;;;21.27;12.20;;;13.10;99.90;;;;;;4992449;28;20069;-73
2022/10/30 04:39:26;;;;;;;20.48;12.38;;;13.10;99.90;;;;;;4993810;28;20034;-74
2022/10/30 04:41:52;;;;;;;24.75;12.20;;;12.90;99.90;;;;;;4992337;28;20092;-73
2022/10/30 04:44:17;;;;;;;22.25;12.50;;;12.90;99.90;;;;;;4993266;28;20042;-74
2022/10/30 04:46:43;;;;;;;23.52;12.20;;;12.90;99.90;;;;;;4993514;28;20092;-73
2022/10/30 04:49:08;;;;;;;20.20;12.38;;;13.00;99.90;;;;;;4992118;28;20463;-73
2022/10/30 04:51:34;;;;;;;18.67;11.93;;;12.80;99.90;;;;;;4993514;28;20042;-73
2022/10/30 04:54:00;;;;;;;25.40;11.75;;;13.00;99.90;;;;;;4991747;28;20042;-73
2022/10/30 04:56:25;;;;;;;19.33;12.15;;;12.70;99.90;;;;;;4993462;28;20045;-73
2022/10/30 04:58:52;;;;;;;23.40;12.82;;;12.80;99.90;;;;;;4993121;28;20038;-73
2022/10/30 05:01:18;;;;;;;20.77;12.48;;;12.90;99.90;;;;;;4993278;28;20097;-73
2022/10/30 05:03:43;;;;;;;21.60;12.90;;;12.70;99.90;;;;;;4992778;28;20483;-73
2022/10/30 05:06:26;;;;;;;20.77;12.30;;;12.70;99.90;;;;;;4992178;28;20590;-73
2022/10/30 05:08:51;;;;;;;21.17;13.10;;;12.80;99.90;;;;;;4993272;28;20049;-73
2022/10/30 05:11:17;;;;;;;22.27;12.50;;;12.90;99.90;;;;;;4991719;28;20042;-73
2022/10/30 05:13:43;;;;;;;24.33;13.23;;;12.90;99.90;;;;;;4991372;28;20042;-73
2022/10/30 05:16:08;;;;;;;22.70;13.20;;;12.90;99.90;;;;;;4991578;28;20518;-73
2022/10/30 05:18:34;;;;;;;25.65;13.82;;;12.90;99.90;;;;;;4991642;28;20043;-73
2022/10/30 05:21:00;;;;;;;20.98;12.90;;;12.80;99.90;;;;;;4992933;28;20050;-73
2022/10/30 05:23:25;;;;;;;19.92;12.00;;;12.70;99.90;;;;;;4975421;28;20046;-73
2022/10/30 05:25:51;;;;;;;21.60;12.48;;;12.90;99.90;;;;;;4993059;28;20049;-73
2022/10/30 05:28:16;;;;;;;25.58;13.48;;;12.90;99.90;;;;;;4991465;28;20056;-73
2022/10/30 05:30:42;;;;;;;21.75;13.13;;;12.70;99.90;;;;;;4991299;28;20042;-74
2022/10/30 05:33:10;;;;;;;21.98;13.07;;;12.80;99.90;;;;;;4991097;28;20396;-73
2022/10/30 05:35:36;;;;;;;21.83;12.77;;;12.70;99.90;;;;;;4992804;28;20034;-73
2022/10/30 05:38:04;;;;;;;25.02;14.23;;;12.70;99.90;;;;;;4992681;28;20042;-73
2022/10/30 05:40:30;;;;;;;24.73;13.43;;;13.00;99.90;;;;;;4991474;28;20054;-74
2022/10/30 05:42:56;;;;;;;27.17;13.43;;;13.00;99.90;;;;;;4992182;28;20381;-75
2022/10/30 05:45:22;;;;;;;24.95;13.93;;;13.00;99.90;;;;;;4991546;28;20048;-75
2022/10/30 05:48:16;;;;;;;19.15;12.57;;;12.90;99.90;;;;;;4992732;28;20039;-75
2022/10/30 05:50:42;;;;;;;19.70;12.25;;;12.60;99.90;;;;;;4978955;28;20104;-75
2022/10/30 05:53:09;;;;;;;20.23;12.30;;;12.90;99.90;;;;;;4992133;28;20496;-72
2022/10/30 05:55:35;;;;;;;26.42;13.13;;;12.90;99.90;;;;;;4992396;28;20065;-72
2022/10/30 05:58:03;;;;;;;21.63;13.35;;;12.90;99.90;;;;;;4991025;28;20121;-72
2022/10/30 06:00:31;;;;;;;22.80;13.35;;;13.00;99.90;;;;;;4990941;28;20108;-72
2022/10/30 06:03:04;;;;;;;27.02;13.43;;;12.70;99.90;;;;;;4992152;28;20042;-72
2022/10/30 06:05:32;;;;;;;20.15;12.68;;;12.70;99.90;;;;;;4992279;28;20042;-72
2022/10/30 06:07:58;;;;;;;20.13;13.00;;;12.90;99.90;;;;;;4991135;28;20129;-72
2022/10/30 06:10:24;;;;;;;25.35;12.80;;;12.60;99.90;;;;;;4992342;28;20207;-72
2022/10/30 06:12:57;;;;;;;20.20;12.88;;;12.80;99.90;;;;;;4974487;28;20057;-72
2022/10/30 06:15:23;;;;;;;20.40;13.05;;;12.90;99.90;;;;;;4990963;28;20041;-72
2022/10/30 06:17:49;;;;;;;28.08;14.52;;;12.60;99.90;;;;;;4991347;28;20046;-72
2022/10/30 06:20:16;;;;;;;20.02;13.38;;;12.80;99.90;;;;;;4992278;28;20070;-72
2022/10/30 06:22:51;;;;;;;20.17;12.30;;;12.70;99.90;;;;;;4991675;28;20060;-72
2022/10/30 06:25:17;;;;;;;22.15;13.63;;;12.80;99.90;;;;;;4991113;28;20039;-72
2022/10/30 06:27:42;;;;;;;21.95;13.85;;;12.60;99.90;;;;;;4993854;28;20044;-72
2022/10/30 06:30:08;;;;;;;23.58;13.60;;;12.80;99.90;;;;;;4996120;28;20038;-72
2022/10/30 06:32:34;;;;;;;25.05;14.27;;;12.80;99.90;;;;;;4994594;28;20077;-72
2022/10/30 06:34:59;;;;;;;24.75;13.90;;;12.70;99.90;;;;;;4994620;28;20129;-72
2022/10/30 06:37:25;;;;;;;26.05;14.32;;;12.70;99.90;;;;;;4994789;28;20042;-72
2022/10/30 06:39:50;;;;;;;20.20;13.43;;;12.80;99.90;;;;;;4994881;28;20515;-72
2022/10/30 06:42:16;;;;;;;23.13;14.05;;;12.70;99.90;;;;;;4994531;28;20057;-72
2022/10/30 06:44:41;;;;;;;23.20;14.05;;;12.80;99.90;;;;;;4994459;28;20039;-72
2022/10/30 06:47:07;;;;;;;23.13;12.77;;;12.80;99.90;;;;;;4995792;28;20046;-72
2022/10/30 06:49:32;;;;;;;22.83;13.85;;;12.70;99.90;;;;;;4994752;28;20057;-72
2022/10/30 06:51:57;;;;;;;26.88;14.15;;;12.80;99.90;;;;;;4995402;28;20527;-72
2022/10/30 06:54:23;;;;;;;24.90;14.07;;;12.80;99.90;;;;;;4994121;28;20065;-72
2022/10/30 06:56:50;;;;;;;22.02;12.85;;;12.70;99.90;;;;;;4995823;28;20081;-72
2022/10/30 06:59:16;;;;;;;21.17;12.48;;;13.00;99.90;;;;;;4995593;28;20046;-72
2022/10/30 07:01:41;;;;;;;23.25;13.70;;;12.90;99.90;;;;;;4994167;28;20034;-72
2022/10/30 07:04:06;;;;;;;27.83;14.57;;;12.90;99.90;;;;;;4993755;28;20046;-72
2022/10/30 07:06:32;;;;;;;28.50;13.90;;;13.00;99.90;;;;;;4995362;28;20042;-75
2022/10/30 07:08:57;;;;;;;27.05;13.55;;;12.80;99.90;;;;;;4994372;28;20097;-75
2022/10/30 07:11:23;;;;;;;24.48;14.57;;;13.00;99.90;;;;;;4995353;28;20501;-75
2022/10/30 07:13:49;;;;;;;24.38;14.40;;;12.80;99.90;;;;;;4995036;28;20070;-75
2022/10/30 07:16:14;;;;;;;34.97;14.48;;;13.00;99.90;;;;;;4994004;28;20041;-75
2022/10/30 07:18:40;;;;;;;23.75;14.35;;;13.10;99.90;;;;;;4995151;28;20038;-75
2022/10/30 07:21:05;;;;;;;25.90;14.52;;;13.00;99.90;;;;;;4995054;28;20042;-75
2022/10/30 07:23:31;;;;;;;22.13;14.45;;;13.30;99.90;;;;;;4993582;28;20042;-75
2022/10/30 07:25:57;;;;;;;26.50;14.35;;;13.20;99.90;;;;;;4993756;28;20053;-75
2022/10/30 07:28:23;;;;;;;34.22;14.63;;;13.30;99.90;;;;;;4994996;28;20043;-75
2022/10/30 07:30:48;;;;;;;27.45;15.10;;;13.60;99.90;;;;;;4993680;28;20034;-75
2022/10/30 07:33:14;;;;;;;25.13;15.38;;;13.60;99.90;;;;;;4994672;28;20054;-75
2022/10/30 07:35:39;;;;;;;25.73;13.68;;;13.50;99.90;;;;;;4994826;28;20039;-75
2022/10/30 07:38:08;;;;;;;20.65;13.90;;;13.80;99.90;;;;;;4994654;28;20691;-75
2022/10/30 07:40:34;;;;;;;23.40;14.35;;;13.60;99.90;;;;;;4992848;28;20042;-75
2022/10/30 07:43:01;;;;;;;24.50;15.32;;;13.70;99.90;;;;;;4993185;28;20424;-73
2022/10/30 07:45:27;;;;;;;23.58;15.05;;;13.90;99.90;;;;;;4993367;28;20472;-72
2022/10/30 07:47:53;;;;;;;27.75;15.20;;;14.20;99.90;;;;;;4994601;28;20049;-72
2022/10/30 07:50:19;;;;;;;29.25;15.10;;;14.30;99.90;;;;;;4993412;28;20038;-73
2022/10/30 07:52:45;;;;;;;32.17;17.25;;;14.60;99.90;;;;;;4992921;28;20045;-72
2022/10/30 07:55:11;;;;;;;26.13;15.50;;;14.60;99.90;;;;;;4993153;28;20050;-72
2022/10/30 07:57:37;;;;;;;22.13;15.10;;;14.50;99.90;;;;;;4994594;28;20042;-72
2022/10/30 08:00:09;;;;;;;32.17;16.02;;;14.80;99.90;;;;;;4993285;28;20553;-73
2022/10/30 08:02:35;;;;;;;26.50;15.43;;;15.00;99.90;;;;;;4992845;28;20084;-73
2022/10/30 08:05:02;;;;;;;22.70;14.70;;;14.90;99.90;;;;;;4994158;28;20074;-75
2022/10/30 08:07:32;;;;;;;32.90;14.90;;;15.30;99.90;;;;;;4993282;28;20042;-75
2022/10/30 08:09:58;;;;;;;27.48;15.15;;;15.10;99.90;;;;;;4994311;28;20516;-74
2022/10/30 08:12:24;;;;;;;27.00;15.68;;;15.50;99.90;;;;;;4993849;28;20088;-72
2022/10/30 08:14:50;;;;;;;42.30;16.40;;;15.40;99.90;;;;;;5002539;28;20034;-71
2022/10/30 08:17:15;;;;;;;26.73;15.15;;;15.40;99.90;;;;;;5028213;28;20052;-72
2022/10/30 08:19:41;;;;;;;25.10;14.98;;;15.40;99.90;;;;;;5033406;28;20430;-71
2022/10/30 08:22:09;;;;;;;26.58;14.82;;;15.50;99.90;;;;;;5031933;28;20041;-71
2022/10/30 08:24:34;;;;;;;24.23;14.85;;;15.80;99.90;;;;;;5033221;28;20042;-72
2022/10/30 08:27:00;;;;;;;26.73;16.05;;;15.50;99.90;;;;;;5033377;28;20037;-72
2022/10/30 08:29:25;;;;;;;28.30;15.70;;;15.90;99.90;;;;;;5033272;28;20064;-72
2022/10/30 08:31:51;;;;;;;27.58;15.32;;;15.80;99.90;;;;;;5032999;28;20403;-72
2022/10/30 08:34:16;;;;;;;26.73;16.05;;;15.70;99.90;;;;;;5032982;28;20037;-72
2022/10/30 08:36:42;;;;;;;29.02;16.10;;;15.70;99.90;;;;;;5031800;28;20038;-71
2022/10/30 08:39:08;;;;;;;27.25;14.82;;;15.80;99.90;;;;;;5031795;28;20108;-72
2022/10/30 08:41:34;;;;;;;27.67;16.35;;;15.60;99.90;;;;;;5031662;28;20060;-71
2022/10/30 08:43:59;;;;;;;28.88;16.77;;;15.70;99.90;;;;;;5030931;28;20132;-72
2022/10/30 08:46:25;;;;;;;25.73;15.73;;;15.90;99.90;;;;;;5009569;28;20482;-72
2022/10/30 08:48:50;;;;;;;27.88;15.63;;;16.00;99.90;;;;;;5013008;28;20542;-72
2022/10/30 08:51:16;;;;;;;30.85;15.80;;;15.70;99.90;;;;;;5012842;28;20125;-72
2022/10/30 08:53:42;;;;;;;25.55;15.95;;;16.10;99.90;;;;;;5012740;28;20488;-72
2022/10/30 08:56:07;;;;;;;28.08;16.50;;;16.10;99.90;;;;;;5012968;28;20049;-72
2022/10/30 08:58:33;;;;;;;26.77;16.50;;;16.20;99.90;;;;;;5011806;28;20496;-72
2022/10/30 09:00:58;;;;;;;26.90;16.45;;;16.10;99.90;;;;;;5010605;28;20057;-72
2022/10/30 09:03:24;;;;;;;27.80;15.32;;;15.90;99.90;;;;;;4999402;28;20038;-75
2022/10/30 09:05:49;;;;;;;26.83;15.18;;;16.30;99.90;;;;;;5002002;28;20121;-73
2022/10/30 09:08:15;;;;;;;34.75;16.88;;;16.40;99.90;;;;;;5011904;28;20116;-74
2022/10/30 09:10:40;;;;;;;25.13;15.63;;;16.40;99.90;;;;;;5008345;28;20052;-74
2022/10/30 09:13:06;;;;;;;30.52;16.75;;;16.50;99.90;;;;;;5010842;28;20120;-75
2022/10/30 09:15:32;;;;;;;27.52;16.17;;;16.20;99.90;;;;;;5011087;28;20518;-74
2022/10/30 09:18:00;;;;;;;26.55;16.15;;;16.30;99.90;;;;;;5009254;28;20133;-74
2022/10/30 09:20:26;;;;;;;31.65;15.48;;;16.40;99.90;;;;;;5000489;28;20033;-74
2022/10/30 09:22:52;;;;;;;28.63;16.63;;;16.40;99.90;;;;;;5010714;28;20092;-73
2022/10/30 09:25:18;;;;;;;26.77;15.45;;;16.30;99.90;;;;;;5010855;28;20499;-73
2022/10/30 09:27:44;;;;;;;28.85;15.82;;;16.50;99.90;;;;;;5027338;23;20087;-72
2022/10/30 09:30:10;;;;;;;22.63;15.25;;;16.30;99.90;;;;;;4990943;28;20648;-72
2022/10/30 09:32:35;;;;;;;27.77;16.00;;;16.50;99.90;;;;;;4991765;28;20137;-72
2022/10/30 09:35:01;;;;;;;28.40;15.75;;;16.50;99.90;;;;;;4989499;28;20126;-72
2022/10/30 09:37:27;;;;;;;27.52;15.15;;;16.60;99.90;;;;;;4978645;28;20042;-72
2022/10/30 09:39:52;;;;;;;27.33;16.52;;;16.40;99.90;;;;;;4992323;28;20042;-72
2022/10/30 09:42:56;;;;;;;27.67;15.75;;;16.60;99.90;;;;;;4992269;28;20468;-72
2022/10/30 09:45:44;;;;;;;26.42;16.02;;;16.40;99.90;;;;;;4935166;29;20071;-72
2022/10/30 09:48:29;;;;;;;27.58;15.43;;;16.50;99.90;;;;;;4981180;28;20054;-72
2022/10/30 09:51:16;;;;;;;25.30;16.52;;;16.40;99.90;;;;;;4972722;28;20094;-71
2022/10/30 09:53:55;;;;;;;22.63;14.45;;;16.80;99.90;;;;;;4972492;28;20222;-71
2022/10/30 09:56:28;;;;;;;24.38;15.20;;;16.90;99.90;;;;;;4980514;28;20046;-71
2022/10/30 09:59:11;;;;;;;23.33;16.15;;;16.70;99.90;;;;;;4991935;28;20038;-72
2022/10/30 10:01:41;;;;;;;29.70;15.63;;;16.80;99.90;;;;;;4990719;28;20050;-71
2022/10/30 10:04:25;;;;;;;25.77;15.13;;;16.60;99.90;;;;;;4978292;28;20048;-71
2022/10/30 10:07:05;;;;;;;25.02;16.52;;;16.80;99.90;;;;;;4991793;28;20066;-71
2022/10/30 10:09:33;;;;;;;28.08;14.20;;;17.00;99.90;;;;;;4982879;28;20211;-71
2022/10/30 10:12:27;;;;;;;28.10;15.48;;;17.10;99.90;;;;;;4988303;28;20049;-71
2022/10/30 10:14:54;;;;;;;;;;;17.20;99.90;;;;;;4954850;28;20133;-71
2022/10/30 10:17:30;;;;;;;29.65;14.85;;;17.00;99.90;;;;;;4972512;28;19918;-71
2022/10/30 10:19:59;;;;;;;21.38;14.18;;;16.80;99.90;;;;;;4972473;28;20042;-71
2022/10/30 10:22:33;;;;;;;23.13;15.15;;;17.00;99.90;;;;;;4972178;28;20043;-71
2022/10/30 10:24:58;;;;;;;22.98;14.13;;;17.30;99.90;;;;;;4976372;28;20520;-71
2022/10/30 10:27:46;;;;;;;27.77;14.68;;;17.00;99.90;;;;;;4970852;28;20047;-70
2022/10/30 10:30:19;;;;;;;21.02;12.85;;;17.50;99.90;;;;;;4971843;28;20043;-71
2022/10/30 10:33:10;;;;;;;22.80;13.50;;;17.40;99.90;;;;;;4983034;28;20030;-71
2022/10/30 10:35:45;;;;;;;22.10;12.95;;;17.30;99.90;;;;;;4974665;28;20045;-71
2022/10/30 10:38:16;;;;;;;23.38;14.52;;;17.30;99.90;;;;;;4972349;28;20110;-71
2022/10/30 10:41:20;;;;;;;24.38;14.65;;;17.60;99.90;;;;;;4972581;28;20598;-71
2022/10/30 10:44:14;;;;;;;23.23;13.77;;;17.40;99.90;;;;;;4970619;28;20513;-71
2022/10/30 10:47:01;;;;;;;24.35;13.50;;;17.30;99.90;;;;;;4975731;28;20497;-72
2022/10/30 10:49:47;;;;;;;25.60;15.00;;;17.70;99.90;;;;;;4986458;28;20081;-71
2022/10/30 10:52:23;;;;;;;22.33;14.05;;;17.70;99.90;;;;;;4977669;28;20516;-71
2022/10/30 10:55:01;;;;;;;23.77;12.80;;;17.40;99.90;;;;;;4975453;28;20031;-72
2022/10/30 10:57:32;;;;;;;30.08;13.63;;;17.40;99.90;;;;;;4976604;28;20500;-71
2022/10/30 11:00:04;;;;;;;27.42;13.43;;;17.80;99.90;;;;;;4972382;28;20116;-72
2022/10/30 11:02:32;;;;;;;23.35;14.82;;;17.80;99.90;;;;;;4971467;28;20130;-70
2022/10/30 11:05:12;;;;;;;21.00;12.98;;;17.80;99.90;;;;;;4971733;28;20465;-70
2022/10/30 11:07:48;;;;;;;24.23;12.55;;;17.90;99.90;;;;;;4971693;28;20034;-71
2022/10/30 11:10:17;;;;;;;24.45;12.15;;;17.90;99.90;;;;;;4975820;28;21327;-70
2022/10/30 11:12:42;;;;;;;19.08;11.23;;;17.80;99.90;;;;;;4989173;28;20444;-71
2022/10/30 11:15:20;;;;;;;21.23;12.48;;;18.20;99.90;;;;;;4986590;28;20069;-71
2022/10/30 11:17:58;;;;;;;22.17;10.93;;;18.30;99.90;;;;;;4990951;28;20042;-70
2022/10/30 11:20:43;;;;;;;24.25;11.57;;;18.30;99.90;;;;;;4993343;28;20715;-71
2022/10/30 11:23:44;;;;;;;18.88;10.73;;;18.10;99.90;;;;;;4993498;28;20038;-71
2022/10/30 11:26:24;;;;;;;23.23;11.77;;;18.20;99.90;;;;;;4994942;28;20125;-71
2022/10/30 11:28:59;;;;;;;20.08;11.55;;;18.50;99.90;;;;;;4995198;28;20046;-71
2022/10/30 11:31:33;;;;;;;24.17;11.38;;;18.50;99.90;;;;;;4994128;28;20046;-71
2022/10/30 11:34:14;;;;;;;25.45;12.07;;;18.50;99.90;;;;;;4995493;28;20062;-72
2022/10/30 11:36:39;;;;;;;24.13;11.05;;;18.40;99.90;;;;;;4994458;28;20077;-72
2022/10/30 11:39:10;;;;;;;27.13;10.70;;;18.60;99.90;;;;;;4994841;28;20042;-71
2022/10/30 11:41:36;;;;;;;19.48;9.98;;;18.50;99.90;;;;;;4965788;28;20395;-72
2022/10/30 11:44:02;;;;;;;18.92;9.55;;;18.40;99.90;;;;;;4974757;28;20048;-72
2022/10/30 11:46:28;;;;;;;22.20;9.65;;;18.70;99.90;;;;;;4974824;28;20035;-73
2022/10/30 11:48:54;;;;;;;19.45;10.05;;;18.50;99.90;;;;;;4975093;28;20035;-72
2022/10/30 11:51:32;;;;;;;18.17;10.73;;;18.70;99.90;;;;;;4975021;28;20440;-72
2022/10/30 11:53:58;;;;;;;18.33;9.65;;;18.70;99.90;;;;;;4974986;28;20064;-72
2022/10/30 11:56:24;;;;;;;15.27;10.13;;;18.60;99.90;;;;;;4975281;28;20062;-71
2022/10/30 11:58:54;;;;;;;17.48;9.70;;;18.70;99.90;;;;;;4975261;28;20038;-71
2022/10/30 12:01:37;;;;;;;17.02;7.95;;;18.70;99.90;;;;;;4989999;28;20038;-71
2022/10/30 12:04:22;;;;;;;18.48;8.00;;;18.70;99.90;;;;;;4974756;28;20058;-71
2022/10/30 12:07:17;;;;;;;14.05;7.72;;;18.80;99.90;;;;;;4974956;28;20054;-72
2022/10/30 12:09:44;;;;;;;15.98;7.18;;;18.60;99.90;;;;;;4974736;28;20047;-71
2022/10/30 12:12:17;;;;;;;16.65;8.27;;;18.90;99.90;;;;;;4973226;28;20050;-71
2022/10/30 12:14:42;;;;;;;17.55;8.32;;;18.80;99.90;;;;;;4974763;28;20053;-71
2022/10/30 12:17:13;;;;;;;14.75;8.27;;;19.00;99.90;;;;;;4974638;28;20042;-72
2022/10/30 12:19:49;;;;;;;21.77;9.27;;;19.00;99.90;;;;;;4973149;28;20038;-72
2022/10/30 12:22:30;;;;;;;18.35;8.65;;;19.20;99.90;;;;;;4973278;28;20102;-72
2022/10/30 12:24:58;;;;;;;18.05;8.38;;;19.10;99.90;;;;;;4973856;28;20513;-71
2022/10/30 12:27:25;;;;;;;15.57;8.32;;;19.10;99.90;;;;;;4974485;28;20520;-72
2022/10/30 12:30:17;;;;;;;13.30;8.52;;;19.10;99.90;;;;;;4974496;28;20085;-72
2022/10/30 12:33:06;;;;;;;18.63;9.63;;;19.10;99.90;;;;;;4974133;28;20089;-72
2022/10/30 12:35:41;;;;;;;16.52;9.15;;;18.90;99.90;;;;;;4979714;28;20078;-72
2022/10/30 12:38:43;;;;;;;20.90;9.05;;;19.10;99.90;;;;;;4993088;28;20492;-72
2022/10/30 12:41:26;;;;;;;17.63;9.52;;;18.90;99.90;;;;;;4992652;28;20050;-72